Terminal Aerodrome Forecast
Issued by NWS

Current Version | Previous Version | Text Only | Print | Product List | Glossary On
Versions: 1 2 3 4 5 6 7 8 9 10 11 12 13 14 15 16 17 18 19 20 21 22 23 24 25 26 27 28
000
FTUS45 KGJT 271742
TAFTEX
TAF
KTEX 271742Z 2718/2818 23008G15KT P6SM -TSRA SCT050CB OVC080
     FM280200 16006KT P6SM VCSH SCT040 OVC070
     FM281000 10003KT P6SM BKN100=

USA.gov is the U.S. government's official web portal to all federal, state and local government web resources and services.